sensor_id;sensor_type;location;lat;lon;timestamp;pressure;altitude;pressure_sealevel;temperature;humidity
40490;BME280;26196;52.302;10.572;2023-04-25T00:03:21;99716.84;;;14.82;43.37
40490;BME280;26196;52.302;10.572;2023-04-25T00:07:22;99718.69;;;14.80;43.00
40490;BME280;26196;52.302;10.572;2023-04-25T00:11:57;99725.00;;;14.78;43.25
40490;BME280;26196;52.302;10.572;2023-04-25T00:15:57;99738.09;;;14.79;43.39
40490;BME280;26196;52.302;10.572;2023-04-25T00:19:58;99734.09;;;14.72;43.59
40490;BME280;26196;52.302;10.572;2023-04-25T00:23:59;99741.75;;;14.77;43.32
40490;BME280;26196;52.302;10.572;2023-04-25T00:27:59;99737.50;;;14.74;43.20
40490;BME280;26196;52.302;10.572;2023-04-25T00:32:01;99733.00;;;14.76;43.54
40490;BME280;26196;52.302;10.572;2023-04-25T00:36:01;99725.53;;;14.69;43.32
40490;BME280;26196;52.302;10.572;2023-04-25T00:40:02;99727.97;;;14.72;43.26
40490;BME280;26196;52.302;10.572;2023-04-25T00:44:38;99736.72;;;14.72;43.33
40490;BME280;26196;52.302;10.572;2023-04-25T00:48:39;99737.09;;;14.66;43.51
40490;BME280;26196;52.302;10.572;2023-04-25T00:52:42;99732.84;;;14.63;43.79
40490;BME280;26196;52.302;10.572;2023-04-25T00:56:45;99733.28;;;14.56;43.62
40490;BME280;26196;52.302;10.572;2023-04-25T01:00:46;99731.47;;;14.56;43.54
40490;BME280;26196;52.302;10.572;2023-04-25T01:04:47;99731.59;;;14.55;43.31
40490;BME280;26196;52.302;10.572;2023-04-25T01:08:48;99727.25;;;14.54;43.80
40490;BME280;26196;52.302;10.572;2023-04-25T01:12:48;99723.81;;;14.52;43.59
40490;BME280;26196;52.302;10.572;2023-04-25T01:16:49;99719.94;;;14.59;43.80
40490;BME280;26196;52.302;10.572;2023-04-25T01:21:23;99732.31;;;14.57;43.77
40490;BME280;26196;52.302;10.572;2023-04-25T01:25:26;99731.47;;;14.56;43.68
40490;BME280;26196;52.302;10.572;2023-04-25T01:29:27;99732.50;;;14.54;43.56
40490;BME280;26196;52.302;10.572;2023-04-25T01:33:29;99727.56;;;14.48;43.59
40490;BME280;26196;52.302;10.572;2023-04-25T01:37:29;99731.03;;;14.48;44.33
40490;BME280;26196;52.302;10.572;2023-04-25T01:42:03;99727.25;;;14.54;43.75
40490;BME280;26196;52.302;10.572;2023-04-25T01:46:04;99728.19;;;14.53;44.06
40490;BME280;26196;52.302;10.572;2023-04-25T01:50:06;99729.06;;;14.52;43.90
40490;BME280;26196;52.302;10.572;2023-04-25T01:54:40;99744.03;;;14.51;44.07
40490;BME280;26196;52.302;10.572;2023-04-25T01:58:45;99740.47;;;14.52;43.60
40490;BME280;26196;52.302;10.572;2023-04-25T02:03:20;99733.75;;;14.47;43.72
40490;BME280;26196;52.302;10.572;2023-04-25T02:07:20;99741.81;;;14.43;43.84
40490;BME280;26196;52.302;10.572;2023-04-25T02:11:21;99741.03;;;14.41;43.96
40490;BME280;26196;52.302;10.572;2023-04-25T02:15:21;99748.03;;;14.42;44.09
40490;BME280;26196;52.302;10.572;2023-04-25T02:19:21;99744.69;;;14.39;43.79
40490;BME280;26196;52.302;10.572;2023-04-25T02:23:22;99750.66;;;14.42;44.17
40490;BME280;26196;52.302;10.572;2023-04-25T02:27:22;99748.94;;;14.41;44.08
40490;BME280;26196;52.302;10.572;2023-04-25T02:31:22;99744.78;;;14.37;44.22
40490;BME280;26196;52.302;10.572;2023-04-25T02:35:23;99739.28;;;14.42;44.14
40490;BME280;26196;52.302;10.572;2023-04-25T02:39:23;99738.59;;;14.38;44.39
40490;BME280;26196;52.302;10.572;2023-04-25T02:43:25;99735.28;;;14.35;44.16
40490;BME280;26196;52.302;10.572;2023-04-25T02:47:59;99732.53;;;14.36;44.21
40490;BME280;26196;52.302;10.572;2023-04-25T02:52:00;99741.38;;;14.35;44.00
40490;BME280;26196;52.302;10.572;2023-04-25T02:56:01;99741.31;;;14.37;44.09
40490;BME280;26196;52.302;10.572;2023-04-25T03:00:35;99732.41;;;14.23;44.49
40490;BME280;26196;52.302;10.572;2023-04-25T03:04:35;99749.81;;;14.26;44.70
40490;BME280;26196;52.302;10.572;2023-04-25T03:13:13;99751.31;;;14.30;44.06
40490;BME280;26196;52.302;10.572;2023-04-25T03:21:50;99742.22;;;14.20;44.63
40490;BME280;26196;52.302;10.572;2023-04-25T03:25:50;99744.09;;;14.18;44.94
40490;BME280;26196;52.302;10.572;2023-04-25T03:30:25;99743.34;;;14.16;45.17
40490;BME280;26196;52.302;10.572;2023-04-25T03:34:59;99757.50;;;14.13;44.86
40490;BME280;26196;52.302;10.572;2023-04-25T03:39:00;99758.44;;;14.12;44.77
40490;BME280;26196;52.302;10.572;2023-04-25T03:47:38;99780.50;;;14.10;45.68
40490;BME280;26196;52.302;10.572;2023-04-25T03:51:38;99788.13;;;13.98;45.51
40490;BME280;26196;52.302;10.572;2023-04-25T03:56:13;99796.69;;;14.02;45.72
40490;BME280;26196;52.302;10.572;2023-04-25T04:00:13;99807.16;;;14.04;45.64
40490;BME280;26196;52.302;10.572;2023-04-25T04:04:14;99808.09;;;14.03;45.95
40490;BME280;26196;52.302;10.572;2023-04-25T04:08:14;99812.41;;;14.04;45.87
40490;BME280;26196;52.302;10.572;2023-04-25T04:12:49;99809.84;;;14.02;45.42
40490;BME280;26196;52.302;10.572;2023-04-25T04:26:38;99831.81;;;14.18;45.93
40490;BME280;26196;52.302;10.572;2023-04-25T04:35:52;99841.22;;;14.22;46.05
40490;BME280;26196;52.302;10.572;2023-04-25T04:44:27;99860.66;;;14.20;45.59
40490;BME280;26196;52.302;10.572;2023-04-25T04:49:05;99873.06;;;14.18;45.63
40490;BME280;26196;52.302;10.572;2023-04-25T04:53:07;99865.41;;;14.13;45.79
40490;BME280;26196;52.302;10.572;2023-04-25T04:57:07;99876.06;;;14.10;45.89
40490;BME280;26196;52.302;10.572;2023-04-25T05:01:07;99872.53;;;14.11;45.60
40490;BME280;26196;52.302;10.572;2023-04-25T05:05:08;99878.81;;;14.09;45.91
40490;BME280;26196;52.302;10.572;2023-04-25T05:09:45;99877.97;;;14.08;45.51
40490;BME280;26196;52.302;10.572;2023-04-25T05:13:46;99880.81;;;14.04;45.70
40490;BME280;26196;52.302;10.572;2023-04-25T05:17:46;99875.72;;;14.00;45.86
40490;BME280;26196;52.302;10.572;2023-04-25T05:22:24;99887.78;;;14.05;45.71
40490;BME280;26196;52.302;10.572;2023-04-25T05:26:24;99885.53;;;13.97;45.78
40490;BME280;26196;52.302;10.572;2023-04-25T05:30:24;99894.44;;;13.94;46.00
40490;BME280;26196;52.302;10.572;2023-04-25T05:34:59;99900.09;;;13.87;46.16
40490;BME280;26196;52.302;10.572;2023-04-25T05:38:59;99904.34;;;13.89;46.51
40490;BME280;26196;52.302;10.572;2023-04-25T05:43:00;99902.50;;;13.91;46.46
40490;BME280;26196;52.302;10.572;2023-04-25T05:47:34;99911.50;;;13.87;45.78
40490;BME280;26196;52.302;10.572;2023-04-25T05:51:35;99915.34;;;13.80;46.56
40490;BME280;26196;52.302;10.572;2023-04-25T05:56:13;99924.63;;;13.70;46.29
40490;BME280;26196;52.302;10.572;2023-04-25T06:05:25;99935.53;;;13.79;46.52
40490;BME280;26196;52.302;10.572;2023-04-25T06:10:02;99926.47;;;13.68;46.89
40490;BME280;26196;52.302;10.572;2023-04-25T06:14:37;99944.09;;;13.66;47.09
40490;BME280;26196;52.302;10.572;2023-04-25T06:19:14;99944.25;;;13.63;47.08
40490;BME280;26196;52.302;10.572;2023-04-25T06:23:50;99940.34;;;13.71;46.38
40490;BME280;26196;52.302;10.572;2023-04-25T06:27:50;99941.56;;;13.64;46.58
40490;BME280;26196;52.302;10.572;2023-04-25T06:31:51;99938.03;;;13.46;46.22
40490;BME280;26196;52.302;10.572;2023-04-25T06:35:51;99956.13;;;13.52;46.98
40490;BME280;26196;52.302;10.572;2023-04-25T06:39:52;99965.03;;;13.50;46.85
40490;BME280;26196;52.302;10.572;2023-04-25T06:44:26;99968.88;;;13.43;47.15
40490;BME280;26196;52.302;10.572;2023-04-25T06:48:29;99976.69;;;13.44;46.95
40490;BME280;26196;52.302;10.572;2023-04-25T06:52:29;99969.44;;;13.49;46.39
40490;BME280;26196;52.302;10.572;2023-04-25T06:56:30;99972.84;;;13.51;46.75
40490;BME280;26196;52.302;10.572;2023-04-25T07:00:31;99975.63;;;13.48;46.69
40490;BME280;26196;52.302;10.572;2023-04-25T07:04:32;99970.53;;;13.45;46.16
40490;BME280;26196;52.302;10.572;2023-04-25T07:08:32;99972.50;;;13.40;47.08
40490;BME280;26196;52.302;10.572;2023-04-25T07:13:09;99987.19;;;13.44;46.50
40490;BME280;26196;52.302;10.572;2023-04-25T07:17:10;99985.66;;;13.40;47.13
40490;BME280;26196;52.302;10.572;2023-04-25T07:21:10;99995.59;;;13.33;46.63
40490;BME280;26196;52.302;10.572;2023-04-25T07:25:11;99986.34;;;13.25;46.16
40490;BME280;26196;52.302;10.572;2023-04-25T07:29:11;99976.56;;;13.28;45.57
40490;BME280;26196;52.302;10.572;2023-04-25T07:33:12;99984.22;;;13.33;45.57
40490;BME280;26196;52.302;10.572;2023-04-25T07:37:13;99998.53;;;13.26;45.46
40490;BME280;26196;52.302;10.572;2023-04-25T07:41:48;99992.81;;;13.18;45.70
40490;BME280;26196;52.302;10.572;2023-04-25T07:45:48;100004.88;;;13.22;45.45
40490;BME280;26196;52.302;10.572;2023-04-25T07:49:49;100005.00;;;13.19;44.59
40490;BME280;26196;52.302;10.572;2023-04-25T07:53:49;99997.69;;;13.06;43.95
40490;BME280;26196;52.302;10.572;2023-04-25T07:57:50;100007.34;;;13.06;44.35
40490;BME280;26196;52.302;10.572;2023-04-25T08:01:50;100003.81;;;13.07;44.25
40490;BME280;26196;52.302;10.572;2023-04-25T08:06:28;100023.38;;;13.00;43.92
40490;BME280;26196;52.302;10.572;2023-04-25T08:10:28;100020.56;;;13.04;44.00
40490;BME280;26196;52.302;10.572;2023-04-25T08:14:29;100015.69;;;12.95;43.81
40490;BME280;26196;52.302;10.572;2023-04-25T08:19:03;100026.06;;;12.98;43.73
40490;BME280;26196;52.302;10.572;2023-04-25T08:23:05;100030.47;;;12.98;43.76
40490;BME280;26196;52.302;10.572;2023-04-25T08:27:39;100031.47;;;12.95;42.96
40490;BME280;26196;52.302;10.572;2023-04-25T08:31:39;100043.84;;;12.93;43.78
40490;BME280;26196;52.302;10.572;2023-04-25T08:35:40;100037.72;;;12.92;43.57
40490;BME280;26196;52.302;10.572;2023-04-25T08:39:40;100037.78;;;12.91;43.19
40490;BME280;26196;52.302;10.572;2023-04-25T08:44:16;100052.75;;;12.89;43.42
40490;BME280;26196;52.302;10.572;2023-04-25T08:48:17;100056.84;;;12.96;43.77
40490;BME280;26196;52.302;10.572;2023-04-25T08:52:22;100059.31;;;12.99;43.92
40490;BME280;26196;52.302;10.572;2023-04-25T08:56:22;100069.81;;;12.99;44.00
40490;BME280;26196;52.302;10.572;2023-04-25T09:00:57;100074.56;;;12.91;43.65
40490;BME280;26196;52.302;10.572;2023-04-25T09:04:58;100083.31;;;12.91;42.95
40490;BME280;26196;52.302;10.572;2023-04-25T09:09:03;100078.88;;;12.92;42.78
40490;BME280;26196;52.302;10.572;2023-04-25T09:13:13;100090.13;;;12.96;42.51
40490;BME280;26196;52.302;10.572;2023-04-25T09:17:45;100091.03;;;12.95;42.93
40490;BME280;26196;52.302;10.572;2023-04-25T09:21:49;100088.34;;;12.96;42.35
40490;BME280;26196;52.302;10.572;2023-04-25T09:25:51;100092.75;;;12.96;42.21
40490;BME280;26196;52.302;10.572;2023-04-25T09:29:59;100106.53;;;13.01;42.61
40490;BME280;26196;52.302;10.572;2023-04-25T09:34:00;100107.47;;;13.00;42.35
40490;BME280;26196;52.302;10.572;2023-04-25T09:38:01;100117.81;;;13.03;42.74
40490;BME280;26196;52.302;10.572;2023-04-25T09:42:03;100123.72;;;13.08;42.35
40490;BME280;26196;52.302;10.572;2023-04-25T09:46:08;100136.03;;;13.07;42.40
40490;BME280;26196;52.302;10.572;2023-04-25T09:50:17;100126.44;;;13.06;42.22
40490;BME280;26196;52.302;10.572;2023-04-25T09:54:19;100132.59;;;13.05;41.89
40490;BME280;26196;52.302;10.572;2023-04-25T09:58:20;100138.00;;;13.02;40.62
40490;BME280;26196;52.302;10.572;2023-04-25T10:02:22;100137.84;;;13.05;40.76
40490;BME280;26196;52.302;10.572;2023-04-25T10:06:24;100141.41;;;13.04;40.97
40490;BME280;26196;52.302;10.572;2023-04-25T10:10:26;100140.50;;;13.05;40.90
40490;BME280;26196;52.302;10.572;2023-04-25T10:14:29;100151.00;;;13.05;41.65
40490;BME280;26196;52.302;10.572;2023-04-25T10:23:13;100157.84;;;13.09;41.31
40490;BME280;26196;52.302;10.572;2023-04-25T10:27:14;100157.88;;;13.08;40.74
40490;BME280;26196;52.302;10.572;2023-04-25T10:31:15;100161.50;;;13.05;40.58
40490;BME280;26196;52.302;10.572;2023-04-25T10:35:25;100159.72;;;13.06;40.52
40490;BME280;26196;52.302;10.572;2023-04-25T10:39:27;100151.78;;;13.07;40.75
40490;BME280;26196;52.302;10.572;2023-04-25T10:48:24;100145.28;;;13.16;40.72
40490;BME280;26196;52.302;10.572;2023-04-25T10:52:26;100143.28;;;13.21;41.21
40490;BME280;26196;52.302;10.572;2023-04-25T10:56:28;100161.50;;;13.26;41.57
40490;BME280;26196;52.302;10.572;2023-04-25T11:00:29;100153.50;;;13.29;40.46
40490;BME280;26196;52.302;10.572;2023-04-25T11:05:05;100164.81;;;13.31;40.41
40490;BME280;26196;52.302;10.572;2023-04-25T11:09:10;100163.13;;;13.30;39.64
40490;BME280;26196;52.302;10.572;2023-04-25T11:13:13;100160.41;;;13.31;39.13
40490;BME280;26196;52.302;10.572;2023-04-25T11:17:50;100162.97;;;13.33;39.58
40490;BME280;26196;52.302;10.572;2023-04-25T11:21:55;100170.72;;;13.36;40.02
40490;BME280;26196;52.302;10.572;2023-04-25T11:25:56;100171.56;;;13.37;39.44
40490;BME280;26196;52.302;10.572;2023-04-25T11:29:56;100174.19;;;13.37;39.70
40490;BME280;26196;52.302;10.572;2023-04-25T11:33:57;100184.53;;;13.41;39.22
40490;BME280;26196;52.302;10.572;2023-04-25T11:37:58;100194.66;;;13.50;39.64
40490;BME280;26196;52.302;10.572;2023-04-25T11:41:58;100198.38;;;13.45;38.83
40490;BME280;26196;52.302;10.572;2023-04-25T11:46:36;100207.34;;;13.41;39.08
40490;BME280;26196;52.302;10.572;2023-04-25T11:50:39;100208.19;;;13.41;39.12
40490;BME280;26196;52.302;10.572;2023-04-25T11:54:40;100196.88;;;13.39;39.05
40490;BME280;26196;52.302;10.572;2023-04-25T11:59:03;100201.34;;;13.37;39.16
40490;BME280;26196;52.302;10.572;2023-04-25T12:03:04;100201.09;;;13.43;39.74
40490;BME280;26196;52.302;10.572;2023-04-25T12:07:38;100197.28;;;13.50;40.09
40490;BME280;26196;52.302;10.572;2023-04-25T12:11:43;100204.94;;;13.55;40.87
40490;BME280;26196;52.302;10.572;2023-04-25T12:15:46;100216.31;;;13.55;40.26
40490;BME280;26196;52.302;10.572;2023-04-25T12:19:46;100206.72;;;13.54;40.29
40490;BME280;26196;52.302;10.572;2023-04-25T12:23:47;100212.78;;;13.56;39.47
40490;BME280;26196;52.302;10.572;2023-04-25T12:27:47;100209.19;;;13.57;39.65
40490;BME280;26196;52.302;10.572;2023-04-25T12:31:51;100217.09;;;13.57;39.01
40490;BME280;26196;52.302;10.572;2023-04-25T12:36:25;100214.28;;;13.62;39.43
40490;BME280;26196;52.302;10.572;2023-04-25T12:45:03;100217.59;;;13.66;39.52
40490;BME280;26196;52.302;10.572;2023-04-25T12:53:41;100224.50;;;13.68;39.55
40490;BME280;26196;52.302;10.572;2023-04-25T12:58:16;100234.91;;;13.71;39.03
40490;BME280;26196;52.302;10.572;2023-04-25T13:02:51;100219.66;;;13.59;38.68
40490;BME280;26196;52.302;10.572;2023-04-25T13:07:29;100248.78;;;13.75;37.75
40490;BME280;26196;52.302;10.572;2023-04-25T13:11:29;100252.34;;;13.74;38.01
40490;BME280;26196;52.302;10.572;2023-04-25T13:16:04;100232.13;;;13.74;38.12
40490;BME280;26196;52.302;10.572;2023-04-25T13:20:38;100239.09;;;13.75;37.82
40490;BME280;26196;52.302;10.572;2023-04-25T13:24:38;100236.28;;;13.80;37.94
40490;BME280;26196;52.302;10.572;2023-04-25T13:33:53;100248.22;;;13.87;38.20
40490;BME280;26196;52.302;10.572;2023-04-25T13:43:07;100253.22;;;13.93;38.74
40490;BME280;26196;52.302;10.572;2023-04-25T13:47:45;100245.25;;;13.95;39.26
40490;BME280;26196;52.302;10.572;2023-04-25T13:51:45;100257.41;;;13.97;38.92
40490;BME280;26196;52.302;10.572;2023-04-25T13:55:46;100252.00;;;14.00;38.52
40490;BME280;26196;52.302;10.572;2023-04-25T14:00:23;100257.97;;;14.04;38.35
40490;BME280;26196;52.302;10.572;2023-04-25T14:05:01;100262.34;;;14.05;38.04
40490;BME280;26196;52.302;10.572;2023-04-25T14:09:01;100257.91;;;14.06;38.03
40490;BME280;26196;52.302;10.572;2023-04-25T14:13:37;100266.53;;;14.09;38.24
40490;BME280;26196;52.302;10.572;2023-04-25T14:18:14;100270.78;;;14.12;38.63
40490;BME280;26196;52.302;10.572;2023-04-25T14:27:28;100281.81;;;14.20;37.45
40490;BME280;26196;52.302;10.572;2023-04-25T14:32:05;100287.09;;;14.20;37.93
40490;BME280;26196;52.302;10.572;2023-04-25T14:36:39;100293.09;;;14.23;38.08
40490;BME280;26196;52.302;10.572;2023-04-25T14:40:40;100288.50;;;14.27;38.65
40490;BME280;26196;52.302;10.572;2023-04-25T14:44:40;100296.22;;;14.32;38.41
40490;BME280;26196;52.302;10.572;2023-04-25T14:49:18;100288.06;;;14.36;39.15
40490;BME280;26196;52.302;10.572;2023-04-25T14:58:15;100310.50;;;14.45;39.04
40490;BME280;26196;52.302;10.572;2023-04-25T15:02:15;100311.38;;;14.45;39.91
40490;BME280;26196;52.302;10.572;2023-04-25T15:06:16;100301.63;;;14.48;40.16
40490;BME280;26196;52.302;10.572;2023-04-25T15:10:50;100306.75;;;14.51;39.87
40490;BME280;26196;52.302;10.572;2023-04-25T15:14:51;100308.44;;;14.52;40.39
40490;BME280;26196;52.302;10.572;2023-04-25T15:23:48;100316.88;;;14.60;41.04
40490;BME280;26196;52.302;10.572;2023-04-25T15:27:48;100315.94;;;14.61;40.85
40490;BME280;26196;52.302;10.572;2023-04-25T15:31:49;100318.59;;;14.61;41.21
40490;BME280;26196;52.302;10.572;2023-04-25T15:36:24;100318.28;;;14.67;41.04
40490;BME280;26196;52.302;10.572;2023-04-25T15:45:05;100330.47;;;14.70;40.81
40490;BME280;26196;52.302;10.572;2023-04-25T15:49:06;100335.53;;;14.74;41.26
40490;BME280;26196;52.302;10.572;2023-04-25T15:53:41;100332.09;;;14.72;40.54
40490;BME280;26196;52.302;10.572;2023-04-25T15:58:16;100339.78;;;14.77;40.88
40490;BME280;26196;52.302;10.572;2023-04-25T16:07:30;100341.38;;;14.81;40.58
40490;BME280;26196;52.302;10.572;2023-04-25T16:12:05;100343.00;;;14.83;40.02
40490;BME280;26196;52.302;10.572;2023-04-25T16:16:40;100345.63;;;14.83;40.99
40490;BME280;26196;52.302;10.572;2023-04-25T16:21:15;100357.88;;;14.84;39.85
40490;BME280;26196;52.302;10.572;2023-04-25T16:25:52;100357.88;;;14.84;40.02
40490;BME280;26196;52.302;10.572;2023-04-25T16:34:31;100347.41;;;14.83;38.20
40490;BME280;26196;52.302;10.572;2023-04-25T16:39:05;100345.63;;;14.83;38.27
40490;BME280;26196;52.302;10.572;2023-04-25T16:43:07;100344.84;;;14.81;38.75
40490;BME280;26196;52.302;10.572;2023-04-25T16:47:41;100340.38;;;14.83;38.93
40490;BME280;26196;52.302;10.572;2023-04-25T16:51:42;100351.81;;;14.82;39.52
40490;BME280;26196;52.302;10.572;2023-04-25T17:00:22;100355.09;;;14.87;39.15
40490;BME280;26196;52.302;10.572;2023-04-25T17:05:00;100351.53;;;14.88;39.19
40490;BME280;26196;52.302;10.572;2023-04-25T17:09:37;100354.19;;;14.88;39.11
40490;BME280;26196;52.302;10.572;2023-04-25T17:14:11;100355.78;;;14.91;39.45
40490;BME280;26196;52.302;10.572;2023-04-25T17:18:49;100355.72;;;14.93;39.38
40490;BME280;26196;52.302;10.572;2023-04-25T17:22:50;100358.50;;;14.90;38.21
40490;BME280;26196;52.302;10.572;2023-04-25T17:26:50;100363.63;;;14.93;38.74
40490;BME280;26196;52.302;10.572;2023-04-25T17:35:47;100380.38;;;14.92;38.33
40490;BME280;26196;52.302;10.572;2023-04-25T17:39:48;100390.19;;;14.88;38.18
40490;BME280;26196;52.302;10.572;2023-04-25T17:44:23;100399.88;;;14.87;38.10
40490;BME280;26196;52.302;10.572;2023-04-25T17:49:00;100400.81;;;14.86;38.51
40490;BME280;26196;52.302;10.572;2023-04-25T18:02:55;100403.53;;;14.85;39.31
40490;BME280;26196;52.302;10.572;2023-04-25T18:06:55;100412.22;;;14.87;39.55
40490;BME280;26196;52.302;10.572;2023-04-25T18:10:56;100414.69;;;14.90;39.90
40490;BME280;26196;52.302;10.572;2023-04-25T18:15:30;100415.63;;;14.89;39.78
40490;BME280;26196;52.302;10.572;2023-04-25T18:24:44;100429.47;;;14.94;39.27
40490;BME280;26196;52.302;10.572;2023-04-25T18:37:57;100465.56;;;14.92;39.71
40490;BME280;26196;52.302;10.572;2023-04-25T18:51:51;100479.78;;;14.88;38.64
40490;BME280;26196;52.302;10.572;2023-04-25T18:56:27;100487.00;;;14.84;38.51
40490;BME280;26196;52.302;10.572;2023-04-25T19:01:05;100486.16;;;14.84;38.56
40490;BME280;26196;52.302;10.572;2023-04-25T19:05:05;100494.91;;;14.84;38.66
40490;BME280;26196;52.302;10.572;2023-04-25T19:09:06;100497.59;;;14.83;38.60
40490;BME280;26196;52.302;10.572;2023-04-25T19:13:07;100496.88;;;14.79;38.45
40490;BME280;26196;52.302;10.572;2023-04-25T19:17:07;100507.47;;;14.78;38.81
40490;BME280;26196;52.302;10.572;2023-04-25T19:21:42;100512.00;;;14.76;38.19
40490;BME280;26196;52.302;10.572;2023-04-25T19:26:19;100512.31;;;14.68;37.89
40490;BME280;26196;52.302;10.572;2023-04-25T19:30:54;100522.88;;;14.68;37.65
40490;BME280;26196;52.302;10.572;2023-04-25T19:34:54;100530.88;;;14.65;38.11
40490;BME280;26196;52.302;10.572;2023-04-25T19:39:26;100530.16;;;14.61;37.56
40490;BME280;26196;52.302;10.572;2023-04-25T19:44:04;100531.00;;;14.62;38.13
40490;BME280;26196;52.302;10.572;2023-04-25T19:48:39;100537.22;;;14.61;37.95
40490;BME280;26196;52.302;10.572;2023-04-25T19:53:14;100547.09;;;14.56;38.14
40490;BME280;26196;52.302;10.572;2023-04-25T19:57:49;100538.41;;;14.54;37.92
40490;BME280;26196;52.302;10.572;2023-04-25T20:07:03;100535.53;;;14.38;37.71
40490;BME280;26196;52.302;10.572;2023-04-25T20:11:38;100551.06;;;14.44;37.68
40490;BME280;26196;52.302;10.572;2023-04-25T20:20:18;100549.56;;;14.38;37.82
40490;BME280;26196;52.302;10.572;2023-04-25T20:28:53;100553.38;;;14.31;37.42
40490;BME280;26196;52.302;10.572;2023-04-25T20:32:53;100559.56;;;14.30;37.70
40490;BME280;26196;52.302;10.572;2023-04-25T20:41:50;100563.00;;;14.32;37.63
40490;BME280;26196;52.302;10.572;2023-04-25T20:46:25;100567.47;;;14.30;38.02
40490;BME280;26196;52.302;10.572;2023-04-25T20:50:26;100578.72;;;14.34;38.33
40490;BME280;26196;52.302;10.572;2023-04-25T20:54:27;100558.97;;;14.23;38.65
40490;BME280;26196;52.302;10.572;2023-04-25T20:58:29;100566.91;;;14.22;37.87
40490;BME280;26196;52.302;10.572;2023-04-25T21:03:04;100578.25;;;14.24;37.74
40490;BME280;26196;52.302;10.572;2023-04-25T21:07:04;100580.22;;;14.19;37.77
40490;BME280;26196;52.302;10.572;2023-04-25T21:11:39;100582.97;;;14.16;38.14
40490;BME280;26196;52.302;10.572;2023-04-25T21:15:40;100576.78;;;14.17;37.54
40490;BME280;26196;52.302;10.572;2023-04-25T21:19:40;100580.34;;;14.16;37.44
40490;BME280;26196;52.302;10.572;2023-04-25T21:23:41;100584.13;;;14.09;37.72
40490;BME280;26196;52.302;10.572;2023-04-25T21:27:41;100589.66;;;14.03;37.68
40490;BME280;26196;52.302;10.572;2023-04-25T21:31:41;100593.19;;;14.01;37.77
40490;BME280;26196;52.302;10.572;2023-04-25T21:35:42;100593.31;;;13.98;37.42
40490;BME280;26196;52.302;10.572;2023-04-25T21:39:43;100597.09;;;13.91;38.14
40490;BME280;26196;52.302;10.572;2023-04-25T21:43:43;100589.75;;;13.77;37.11
40490;BME280;26196;52.302;10.572;2023-04-25T21:48:21;100601.78;;;13.85;37.24
40490;BME280;26196;52.302;10.572;2023-04-25T21:52:21;100600.41;;;13.74;37.52
40490;BME280;26196;52.302;10.572;2023-04-25T21:56:23;100595.16;;;13.74;37.09
40490;BME280;26196;52.302;10.572;2023-04-25T22:01:00;100588.06;;;13.76;37.42
40490;BME280;26196;52.302;10.572;2023-04-25T22:05:01;100591.97;;;13.66;37.74
40490;BME280;26196;52.302;10.572;2023-04-25T22:09:01;100607.00;;;13.63;36.87
40490;BME280;26196;52.302;10.572;2023-04-25T22:13:02;100602.69;;;13.60;37.92
40490;BME280;26196;52.302;10.572;2023-04-25T22:17:02;100604.44;;;13.61;37.58
40490;BME280;26196;52.302;10.572;2023-04-25T22:21:03;100604.44;;;13.61;38.07
40490;BME280;26196;52.302;10.572;2023-04-25T22:25:37;100606.00;;;13.65;37.90
40490;BME280;26196;52.302;10.572;2023-04-25T22:29:39;100609.69;;;13.61;38.38
40490;BME280;26196;52.302;10.572;2023-04-25T22:33:40;100612.41;;;13.58;38.36
40490;BME280;26196;52.302;10.572;2023-04-25T22:37:41;100622.03;;;13.59;38.21
40490;BME280;26196;52.302;10.572;2023-04-25T22:42:18;100620.13;;;13.63;38.10
40490;BME280;26196;52.302;10.572;2023-04-25T22:46:19;100616.81;;;13.57;38.40
40490;BME280;26196;52.302;10.572;2023-04-25T22:50:20;100624.72;;;13.57;38.45
40490;BME280;26196;52.302;10.572;2023-04-25T22:58:54;100637.28;;;13.49;38.15
40490;BME280;26196;52.302;10.572;2023-04-25T23:02:55;100638.09;;;13.51;38.10
40490;BME280;26196;52.302;10.572;2023-04-25T23:07:29;100638.09;;;13.51;37.80
40490;BME280;26196;52.302;10.572;2023-04-25T23:11:31;100640.78;;;13.50;38.17
40490;BME280;26196;52.302;10.572;2023-04-25T23:15:31;100638.25;;;13.47;38.70
40490;BME280;26196;52.302;10.572;2023-04-25T23:19:32;100640.97;;;13.45;37.84
40490;BME280;26196;52.302;10.572;2023-04-25T23:23:34;100640.28;;;13.40;38.39
40490;BME280;26196;52.302;10.572;2023-04-25T23:27:34;100634.13;;;13.40;37.87
40490;BME280;26196;52.302;10.572;2023-04-25T23:31:36;100642.16;;;13.37;37.92
40490;BME280;26196;52.302;10.572;2023-04-25T23:44:24;100639.78;;;13.29;37.93
40490;BME280;26196;52.302;10.572;2023-04-25T23:48:24;100637.03;;;13.32;38.23
40490;BME280;26196;52.302;10.572;2023-04-25T23:52:59;100656.53;;;13.26;38.04
40490;BME280;26196;52.302;10.572;2023-04-25T23:56:59;100649.50;;;13.27;38.05
